Startpagina
METAR-TAF:

METAR-TAF

Vliegvelden :

Brussels South Charleroi Airport

Charleroi, België

breedte: 50-28N, lengte: 004-27E, hoogte: 187 m

Actueel weer

Dit bericht is 29 minuten geleden gemaakt, om 11:20 UTC
Wind 9 kt uit het noordoosten
Temperatuur 19°C
Vochtigheid 46%
Druk 1025 hPa
Zicht 10 km of meer
geen wolken onder 1500 m en geen cumulonimbus

METAR: EBCI 101120Z 04009KT CAVOK 19/07 Q1025 NOSIG

Tijdstip: 13:49 (11:49 UTC)

Verwachting

Dit bericht is 39 minuten geleden gemaakt, om 11:10 UTC
Verwachting geldig van 10 om 12 UTC tot 11 om 18 UTC
Wind 9 kt uit het noordoosten
Zicht 10 km of meer
Weinig wolken op 2000 ft

TAF: EBCI 101110Z 1012/1118 05009KT 9999 FEW020

Waarnemingen en weersverwachtingen van meer dan 4000 vliegvelden (METAR en TAF).

De beschikbare stations zijn de gele en rode punten op de kaart.

Ga met uw muis naar het station om de naam te zien.

Klik dan om waarnemingen en weersverwachtingen te zien.

kaart wijzigen: klik op de groene knoppen met een zwart kruis om in te zoomen, op de groene knop met een streepje om uit te zoomen of op de groene pijlen voor aangrenzende kaarten.


METAR-TAF: